sensor_id;sensor_type;location;lat;lon;timestamp;P1;durP1;ratioP1;P2;durP2;ratioP2
24161;SDS011;12318;51.262;7.066;2023-09-19T00:00:58;15.48;;;3.10;;
24161;SDS011;12318;51.262;7.066;2023-09-19T00:03:24;13.00;;;2.92;;
24161;SDS011;12318;51.262;7.066;2023-09-19T00:05:50;14.48;;;3.05;;
24161;SDS011;12318;51.262;7.066;2023-09-19T00:08:17;18.02;;;3.00;;
24161;SDS011;12318;51.262;7.066;2023-09-19T00:10:47;17.23;;;3.55;;
24161;SDS011;12318;51.262;7.066;2023-09-19T00:13:13;18.08;;;3.38;;
24161;SDS011;12318;51.262;7.066;2023-09-19T00:15:41;15.60;;;3.22;;
24161;SDS011;12318;51.262;7.066;2023-09-19T00:18:17;16.10;;;2.83;;
24161;SDS011;12318;51.262;7.066;2023-09-19T00:20:53;18.52;;;3.30;;
24161;SDS011;12318;51.262;7.066;2023-09-19T00:23:23;15.18;;;2.80;;
24161;SDS011;12318;51.262;7.066;2023-09-19T00:25:49;16.52;;;3.50;;
24161;SDS011;12318;51.262;7.066;2023-09-19T00:28:16;14.00;;;3.35;;
24161;SDS011;12318;51.262;7.066;2023-09-19T00:30:49;15.68;;;2.75;;
24161;SDS011;12318;51.262;7.066;2023-09-19T00:33:20;16.13;;;2.90;;
24161;SDS011;12318;51.262;7.066;2023-09-19T00:35:55;16.27;;;3.20;;
24161;SDS011;12318;51.262;7.066;2023-09-19T00:38:22;14.02;;;2.80;;
24161;SDS011;12318;51.262;7.066;2023-09-19T00:40:54;16.65;;;3.55;;
24161;SDS011;12318;51.262;7.066;2023-09-19T00:43:22;21.95;;;2.78;;
24161;SDS011;12318;51.262;7.066;2023-09-19T00:45:50;14.40;;;2.90;;
24161;SDS011;12318;51.262;7.066;2023-09-19T00:48:18;11.45;;;2.83;;
24161;SDS011;12318;51.262;7.066;2023-09-19T00:50:45;15.25;;;3.00;;
24161;SDS011;12318;51.262;7.066;2023-09-19T00:53:13;22.55;;;3.40;;
24161;SDS011;12318;51.262;7.066;2023-09-19T00:55:40;12.52;;;3.08;;
24161;SDS011;12318;51.262;7.066;2023-09-19T00:58:07;17.08;;;3.40;;
24161;SDS011;12318;51.262;7.066;2023-09-19T01:00:35;13.50;;;2.92;;
24161;SDS011;12318;51.262;7.066;2023-09-19T01:03:01;19.27;;;3.25;;
24161;SDS011;12318;51.262;7.066;2023-09-19T01:05:28;18.75;;;3.65;;
24161;SDS011;12318;51.262;7.066;2023-09-19T01:07:56;12.18;;;2.88;;
24161;SDS011;12318;51.262;7.066;2023-09-19T01:10:25;12.93;;;3.10;;
24161;SDS011;12318;51.262;7.066;2023-09-19T01:15:38;10.70;;;2.83;;
24161;SDS011;12318;51.262;7.066;2023-09-19T01:28:43;16.63;;;3.20;;
24161;SDS011;12318;51.262;7.066;2023-09-19T01:31:12;23.15;;;2.95;;
24161;SDS011;12318;51.262;7.066;2023-09-19T01:36:22;18.52;;;3.25;;
24161;SDS011;12318;51.262;7.066;2023-09-19T01:38:49;17.20;;;2.95;;
24161;SDS011;12318;51.262;7.066;2023-09-19T01:41:17;13.57;;;2.85;;
24161;SDS011;12318;51.262;7.066;2023-09-19T01:43:49;15.45;;;3.13;;
24161;SDS011;12318;51.262;7.066;2023-09-19T01:46:21;14.60;;;2.92;;
24161;SDS011;12318;51.262;7.066;2023-09-19T01:51:33;13.27;;;2.72;;
24161;SDS011;12318;51.262;7.066;2023-09-19T01:54:09;13.50;;;2.50;;
24161;SDS011;12318;51.262;7.066;2023-09-19T01:59:04;17.63;;;2.95;;
24161;SDS011;12318;51.262;7.066;2023-09-19T02:01:35;20.25;;;3.83;;
24161;SDS011;12318;51.262;7.066;2023-09-19T02:04:03;17.50;;;2.97;;
24161;SDS011;12318;51.262;7.066;2023-09-19T02:06:29;18.95;;;2.50;;
24161;SDS011;12318;51.262;7.066;2023-09-19T02:08:55;16.10;;;3.20;;
24161;SDS011;12318;51.262;7.066;2023-09-19T02:11:22;15.88;;;3.33;;
24161;SDS011;12318;51.262;7.066;2023-09-19T02:13:48;10.63;;;2.50;;
24161;SDS011;12318;51.262;7.066;2023-09-19T02:16:19;12.75;;;3.03;;
24161;SDS011;12318;51.262;7.066;2023-09-19T02:18:47;24.25;;;3.47;;
24161;SDS011;12318;51.262;7.066;2023-09-19T02:21:13;12.60;;;2.55;;
24161;SDS011;12318;51.262;7.066;2023-09-19T02:23:40;21.63;;;2.95;;
24161;SDS011;12318;51.262;7.066;2023-09-19T02:26:06;17.00;;;3.03;;
24161;SDS011;12318;51.262;7.066;2023-09-19T02:28:32;16.75;;;3.30;;
24161;SDS011;12318;51.262;7.066;2023-09-19T02:30:59;17.85;;;3.30;;
24161;SDS011;12318;51.262;7.066;2023-09-19T02:33:25;14.60;;;2.92;;
24161;SDS011;12318;51.262;7.066;2023-09-19T02:35:55;14.82;;;3.15;;
24161;SDS011;12318;51.262;7.066;2023-09-19T02:38:27;15.35;;;3.58;;
24161;SDS011;12318;51.262;7.066;2023-09-19T02:40:55;12.98;;;3.15;;
24161;SDS011;12318;51.262;7.066;2023-09-19T02:43:22;18.73;;;3.25;;
24161;SDS011;12318;51.262;7.066;2023-09-19T02:45:49;13.82;;;2.80;;
24161;SDS011;12318;51.262;7.066;2023-09-19T02:48:15;17.65;;;3.53;;
24161;SDS011;12318;51.262;7.066;2023-09-19T02:50:43;15.27;;;2.80;;
24161;SDS011;12318;51.262;7.066;2023-09-19T02:53:12;15.25;;;2.67;;
24161;SDS011;12318;51.262;7.066;2023-09-19T02:55:38;13.27;;;2.72;;
24161;SDS011;12318;51.262;7.066;2023-09-19T02:58:08;16.52;;;2.95;;
24161;SDS011;12318;51.262;7.066;2023-09-19T03:00:36;14.30;;;2.95;;
24161;SDS011;12318;51.262;7.066;2023-09-19T03:03:03;16.58;;;3.03;;
24161;SDS011;12318;51.262;7.066;2023-09-19T03:05:31;14.45;;;2.85;;
24161;SDS011;12318;51.262;7.066;2023-09-19T03:07:57;12.73;;;2.80;;
24161;SDS011;12318;51.262;7.066;2023-09-19T03:10:26;17.85;;;2.90;;
24161;SDS011;12318;51.262;7.066;2023-09-19T03:12:53;19.13;;;2.70;;
24161;SDS011;12318;51.262;7.066;2023-09-19T03:15:19;16.38;;;3.05;;
24161;SDS011;12318;51.262;7.066;2023-09-19T03:17:47;17.35;;;2.95;;
24161;SDS011;12318;51.262;7.066;2023-09-19T03:20:14;17.95;;;3.45;;
24161;SDS011;12318;51.262;7.066;2023-09-19T03:22:43;14.27;;;3.00;;
24161;SDS011;12318;51.262;7.066;2023-09-19T03:25:09;18.38;;;3.45;;
24161;SDS011;12318;51.262;7.066;2023-09-19T03:27:37;16.33;;;3.28;;
24161;SDS011;12318;51.262;7.066;2023-09-19T03:30:04;16.33;;;3.22;;
24161;SDS011;12318;51.262;7.066;2023-09-19T03:32:36;12.52;;;3.05;;
24161;SDS011;12318;51.262;7.066;2023-09-19T03:35:03;15.77;;;2.90;;
24161;SDS011;12318;51.262;7.066;2023-09-19T03:37:33;19.20;;;2.78;;
24161;SDS011;12318;51.262;7.066;2023-09-19T03:39:59;15.23;;;3.05;;
24161;SDS011;12318;51.262;7.066;2023-09-19T03:42:30;16.00;;;3.30;;
24161;SDS011;12318;51.262;7.066;2023-09-19T03:44:56;17.45;;;2.88;;
24161;SDS011;12318;51.262;7.066;2023-09-19T03:47:22;21.02;;;3.10;;
24161;SDS011;12318;51.262;7.066;2023-09-19T03:49:49;15.63;;;3.25;;
24161;SDS011;12318;51.262;7.066;2023-09-19T03:52:15;19.48;;;3.25;;
24161;SDS011;12318;51.262;7.066;2023-09-19T03:54:42;15.13;;;3.40;;
24161;SDS011;12318;51.262;7.066;2023-09-19T03:57:08;18.55;;;3.65;;
24161;SDS011;12318;51.262;7.066;2023-09-19T03:59:34;15.13;;;3.15;;
24161;SDS011;12318;51.262;7.066;2023-09-19T04:02:01;18.90;;;3.28;;
24161;SDS011;12318;51.262;7.066;2023-09-19T04:04:27;16.40;;;3.15;;
24161;SDS011;12318;51.262;7.066;2023-09-19T04:06:54;19.83;;;3.15;;
24161;SDS011;12318;51.262;7.066;2023-09-19T04:09:20;21.48;;;3.92;;
24161;SDS011;12318;51.262;7.066;2023-09-19T04:11:46;21.80;;;3.55;;
24161;SDS011;12318;51.262;7.066;2023-09-19T04:14:15;19.85;;;3.90;;
24161;SDS011;12318;51.262;7.066;2023-09-19T04:16:41;14.23;;;3.47;;
24161;SDS011;12318;51.262;7.066;2023-09-19T04:19:09;22.20;;;3.50;;
24161;SDS011;12318;51.262;7.066;2023-09-19T04:21:36;14.00;;;2.88;;
24161;SDS011;12318;51.262;7.066;2023-09-19T04:24:02;17.98;;;3.40;;
24161;SDS011;12318;51.262;7.066;2023-09-19T04:26:28;14.98;;;3.40;;
24161;SDS011;12318;51.262;7.066;2023-09-19T04:28:54;17.83;;;3.63;;
24161;SDS011;12318;51.262;7.066;2023-09-19T04:31:21;19.05;;;3.83;;
24161;SDS011;12318;51.262;7.066;2023-09-19T04:33:47;17.40;;;4.03;;
24161;SDS011;12318;51.262;7.066;2023-09-19T04:36:13;16.85;;;3.25;;
24161;SDS011;12318;51.262;7.066;2023-09-19T04:38:39;18.13;;;3.70;;
24161;SDS011;12318;51.262;7.066;2023-09-19T04:41:06;21.58;;;3.83;;
24161;SDS011;12318;51.262;7.066;2023-09-19T04:43:32;20.02;;;3.97;;
24161;SDS011;12318;51.262;7.066;2023-09-19T04:46:01;18.50;;;3.22;;
24161;SDS011;12318;51.262;7.066;2023-09-19T04:48:28;17.35;;;4.00;;
24161;SDS011;12318;51.262;7.066;2023-09-19T04:50:54;19.67;;;3.65;;
24161;SDS011;12318;51.262;7.066;2023-09-19T04:53:21;13.95;;;3.58;;
24161;SDS011;12318;51.262;7.066;2023-09-19T04:55:51;18.08;;;3.63;;
24161;SDS011;12318;51.262;7.066;2023-09-19T04:58:21;20.48;;;3.30;;
24161;SDS011;12318;51.262;7.066;2023-09-19T05:00:47;28.08;;;4.45;;
24161;SDS011;12318;51.262;7.066;2023-09-19T05:03:16;13.15;;;3.22;;
24161;SDS011;12318;51.262;7.066;2023-09-19T05:05:42;21.48;;;3.47;;
24161;SDS011;12318;51.262;7.066;2023-09-19T05:08:09;14.73;;;3.25;;
24161;SDS011;12318;51.262;7.066;2023-09-19T05:10:35;19.17;;;3.47;;
24161;SDS011;12318;51.262;7.066;2023-09-19T05:13:05;17.65;;;3.28;;
24161;SDS011;12318;51.262;7.066;2023-09-19T05:15:32;17.95;;;3.33;;
24161;SDS011;12318;51.262;7.066;2023-09-19T05:17:59;23.23;;;3.63;;
24161;SDS011;12318;51.262;7.066;2023-09-19T05:20:25;14.77;;;3.25;;
24161;SDS011;12318;51.262;7.066;2023-09-19T05:23:03;13.68;;;3.25;;
24161;SDS011;12318;51.262;7.066;2023-09-19T05:25:33;25.35;;;4.15;;
24161;SDS011;12318;51.262;7.066;2023-09-19T05:28:02;18.90;;;3.45;;
24161;SDS011;12318;51.262;7.066;2023-09-19T05:30:28;24.13;;;4.15;;
24161;SDS011;12318;51.262;7.066;2023-09-19T05:32:55;21.60;;;4.43;;
24161;SDS011;12318;51.262;7.066;2023-09-19T05:35:27;15.02;;;3.85;;
24161;SDS011;12318;51.262;7.066;2023-09-19T05:37:53;20.90;;;3.90;;
24161;SDS011;12318;51.262;7.066;2023-09-19T05:40:21;18.05;;;4.03;;
24161;SDS011;12318;51.262;7.066;2023-09-19T05:42:47;23.42;;;4.20;;
24161;SDS011;12318;51.262;7.066;2023-09-19T05:45:14;19.50;;;4.15;;
24161;SDS011;12318;51.262;7.066;2023-09-19T05:47:44;22.33;;;4.10;;
24161;SDS011;12318;51.262;7.066;2023-09-19T05:50:12;21.30;;;4.53;;
24161;SDS011;12318;51.262;7.066;2023-09-19T05:52:40;19.77;;;4.28;;
24161;SDS011;12318;51.262;7.066;2023-09-19T05:55:08;22.05;;;4.32;;
24161;SDS011;12318;51.262;7.066;2023-09-19T05:57:35;20.75;;;4.55;;
24161;SDS011;12318;51.262;7.066;2023-09-19T06:00:04;26.10;;;4.53;;
24161;SDS011;12318;51.262;7.066;2023-09-19T06:02:35;21.73;;;3.85;;
24161;SDS011;12318;51.262;7.066;2023-09-19T06:05:01;22.48;;;3.47;;
24161;SDS011;12318;51.262;7.066;2023-09-19T06:07:28;23.35;;;3.83;;
24161;SDS011;12318;51.262;7.066;2023-09-19T06:10:01;19.65;;;3.28;;
24161;SDS011;12318;51.262;7.066;2023-09-19T06:12:28;13.07;;;2.88;;
24161;SDS011;12318;51.262;7.066;2023-09-19T06:14:55;19.23;;;3.05;;
24161;SDS011;12318;51.262;7.066;2023-09-19T06:17:21;12.95;;;2.70;;
24161;SDS011;12318;51.262;7.066;2023-09-19T06:19:47;22.50;;;3.17;;
24161;SDS011;12318;51.262;7.066;2023-09-19T06:22:15;17.48;;;3.58;;
24161;SDS011;12318;51.262;7.066;2023-09-19T06:24:44;22.67;;;4.20;;
24161;SDS011;12318;51.262;7.066;2023-09-19T06:27:12;16.20;;;4.15;;
24161;SDS011;12318;51.262;7.066;2023-09-19T06:29:38;23.25;;;4.13;;
24161;SDS011;12318;51.262;7.066;2023-09-19T06:32:08;17.58;;;3.17;;
24161;SDS011;12318;51.262;7.066;2023-09-19T06:34:35;18.88;;;4.00;;
24161;SDS011;12318;51.262;7.066;2023-09-19T06:37:01;26.40;;;3.92;;
24161;SDS011;12318;51.262;7.066;2023-09-19T06:39:28;24.33;;;4.68;;
24161;SDS011;12318;51.262;7.066;2023-09-19T06:41:54;24.77;;;4.13;;
24161;SDS011;12318;51.262;7.066;2023-09-19T06:44:20;21.77;;;3.35;;
24161;SDS011;12318;51.262;7.066;2023-09-19T06:46:49;22.10;;;3.85;;
24161;SDS011;12318;51.262;7.066;2023-09-19T06:49:16;23.50;;;4.03;;
24161;SDS011;12318;51.262;7.066;2023-09-19T06:51:42;23.30;;;4.25;;
24161;SDS011;12318;51.262;7.066;2023-09-19T06:54:09;25.10;;;4.30;;
24161;SDS011;12318;51.262;7.066;2023-09-19T06:56:35;20.77;;;4.18;;
24161;SDS011;12318;51.262;7.066;2023-09-19T06:59:01;18.70;;;4.30;;
24161;SDS011;12318;51.262;7.066;2023-09-19T07:01:31;17.38;;;3.45;;
24161;SDS011;12318;51.262;7.066;2023-09-19T07:03:57;21.05;;;4.10;;
24161;SDS011;12318;51.262;7.066;2023-09-19T07:06:24;19.60;;;3.58;;
24161;SDS011;12318;51.262;7.066;2023-09-19T07:08:50;18.85;;;3.85;;
24161;SDS011;12318;51.262;7.066;2023-09-19T07:11:16;21.13;;;3.80;;
24161;SDS011;12318;51.262;7.066;2023-09-19T07:13:43;30.52;;;4.47;;
24161;SDS011;12318;51.262;7.066;2023-09-19T07:16:09;23.13;;;4.10;;
24161;SDS011;12318;51.262;7.066;2023-09-19T07:18:38;17.38;;;3.65;;
24161;SDS011;12318;51.262;7.066;2023-09-19T07:21:04;19.95;;;3.80;;
24161;SDS011;12318;51.262;7.066;2023-09-19T07:23:31;20.30;;;3.88;;
24161;SDS011;12318;51.262;7.066;2023-09-19T07:26:00;22.58;;;4.60;;
24161;SDS011;12318;51.262;7.066;2023-09-19T07:28:27;21.55;;;3.88;;
24161;SDS011;12318;51.262;7.066;2023-09-19T07:30:56;12.48;;;2.55;;
24161;SDS011;12318;51.262;7.066;2023-09-19T07:33:22;20.75;;;4.85;;
24161;SDS011;12318;51.262;7.066;2023-09-19T07:35:51;18.67;;;5.20;;
24161;SDS011;12318;51.262;7.066;2023-09-19T07:38:17;17.25;;;4.15;;
24161;SDS011;12318;51.262;7.066;2023-09-19T07:40:43;17.20;;;3.90;;
24161;SDS011;12318;51.262;7.066;2023-09-19T07:43:10;23.88;;;3.88;;
24161;SDS011;12318;51.262;7.066;2023-09-19T07:45:36;20.15;;;3.60;;
24161;SDS011;12318;51.262;7.066;2023-09-19T07:48:02;29.80;;;5.50;;
24161;SDS011;12318;51.262;7.066;2023-09-19T07:50:33;18.30;;;3.25;;
24161;SDS011;12318;51.262;7.066;2023-09-19T07:53:01;18.00;;;3.57;;
24161;SDS011;12318;51.262;7.066;2023-09-19T07:55:30;21.23;;;3.95;;
24161;SDS011;12318;51.262;7.066;2023-09-19T07:57:56;13.23;;;3.55;;
24161;SDS011;12318;51.262;7.066;2023-09-19T08:00:23;24.50;;;4.07;;
24161;SDS011;12318;51.262;7.066;2023-09-19T08:02:49;15.18;;;3.25;;
24161;SDS011;12318;51.262;7.066;2023-09-19T08:05:17;17.15;;;3.50;;
24161;SDS011;12318;51.262;7.066;2023-09-19T08:07:44;16.42;;;3.30;;
24161;SDS011;12318;51.262;7.066;2023-09-19T08:10:13;22.27;;;3.33;;
24161;SDS011;12318;51.262;7.066;2023-09-19T08:12:41;32.30;;;4.28;;
24161;SDS011;12318;51.262;7.066;2023-09-19T08:15:14;24.77;;;4.13;;
24161;SDS011;12318;51.262;7.066;2023-09-19T08:17:41;25.48;;;3.75;;
24161;SDS011;12318;51.262;7.066;2023-09-19T08:20:07;24.42;;;3.88;;
24161;SDS011;12318;51.262;7.066;2023-09-19T08:22:47;22.88;;;4.07;;
24161;SDS011;12318;51.262;7.066;2023-09-19T08:25:14;22.15;;;3.65;;
24161;SDS011;12318;51.262;7.066;2023-09-19T08:27:42;17.27;;;3.20;;
24161;SDS011;12318;51.262;7.066;2023-09-19T08:30:12;17.27;;;3.35;;
24161;SDS011;12318;51.262;7.066;2023-09-19T08:32:39;16.00;;;3.20;;
24161;SDS011;12318;51.262;7.066;2023-09-19T08:35:07;18.55;;;4.03;;
24161;SDS011;12318;51.262;7.066;2023-09-19T08:37:34;17.90;;;3.13;;
24161;SDS011;12318;51.262;7.066;2023-09-19T08:40:00;15.52;;;3.15;;
24161;SDS011;12318;51.262;7.066;2023-09-19T08:42:27;18.05;;;3.53;;
24161;SDS011;12318;51.262;7.066;2023-09-19T08:44:53;15.23;;;2.80;;
24161;SDS011;12318;51.262;7.066;2023-09-19T08:47:29;15.90;;;3.45;;
24161;SDS011;12318;51.262;7.066;2023-09-19T08:50:01;21.67;;;3.17;;
24161;SDS011;12318;51.262;7.066;2023-09-19T08:52:43;18.00;;;3.17;;
24161;SDS011;12318;51.262;7.066;2023-09-19T08:55:12;21.95;;;3.00;;
24161;SDS011;12318;51.262;7.066;2023-09-19T08:57:45;15.85;;;3.10;;
24161;SDS011;12318;51.262;7.066;2023-09-19T09:00:14;14.82;;;2.97;;
24161;SDS011;12318;51.262;7.066;2023-09-19T09:02:42;20.85;;;3.83;;
24161;SDS011;12318;51.262;7.066;2023-09-19T09:05:09;14.35;;;2.55;;
24161;SDS011;12318;51.262;7.066;2023-09-19T09:07:40;17.00;;;3.10;;
24161;SDS011;12318;51.262;7.066;2023-09-19T09:10:07;17.30;;;3.38;;
24161;SDS011;12318;51.262;7.066;2023-09-19T09:12:34;11.85;;;2.75;;
24161;SDS011;12318;51.262;7.066;2023-09-19T09:15:09;12.27;;;2.60;;
24161;SDS011;12318;51.262;7.066;2023-09-19T09:17:37;11.00;;;2.78;;
24161;SDS011;12318;51.262;7.066;2023-09-19T09:20:03;12.95;;;2.72;;
24161;SDS011;12318;51.262;7.066;2023-09-19T09:22:35;14.68;;;3.00;;
24161;SDS011;12318;51.262;7.066;2023-09-19T09:25:05;19.02;;;2.95;;
24161;SDS011;12318;51.262;7.066;2023-09-19T09:27:31;16.77;;;3.17;;
24161;SDS011;12318;51.262;7.066;2023-09-19T09:29:59;16.05;;;3.92;;
24161;SDS011;12318;51.262;7.066;2023-09-19T09:32:31;13.25;;;2.83;;
24161;SDS011;12318;51.262;7.066;2023-09-19T09:34:59;15.27;;;3.10;;
24161;SDS011;12318;51.262;7.066;2023-09-19T09:37:26;17.27;;;3.28;;
24161;SDS011;12318;51.262;7.066;2023-09-19T09:40:00;14.05;;;3.10;;
24161;SDS011;12318;51.262;7.066;2023-09-19T09:42:42;8.10;;;2.50;;
24161;SDS011;12318;51.262;7.066;2023-09-19T09:47:41;12.93;;;2.83;;
24161;SDS011;12318;51.262;7.066;2023-09-19T09:50:22;14.90;;;2.83;;
24161;SDS011;12318;51.262;7.066;2023-09-19T09:52:49;16.08;;;2.50;;
24161;SDS011;12318;51.262;7.066;2023-09-19T09:55:15;9.75;;;2.92;;
24161;SDS011;12318;51.262;7.066;2023-09-19T09:57:44;11.57;;;2.78;;
24161;SDS011;12318;51.262;7.066;2023-09-19T10:00:10;11.15;;;2.92;;
24161;SDS011;12318;51.262;7.066;2023-09-19T10:02:37;14.13;;;2.90;;
24161;SDS011;12318;51.262;7.066;2023-09-19T10:05:20;14.95;;;2.30;;
24161;SDS011;12318;51.262;7.066;2023-09-19T10:07:50;11.35;;;2.50;;
24161;SDS011;12318;51.262;7.066;2023-09-19T10:10:31;12.05;;;2.70;;
24161;SDS011;12318;51.262;7.066;2023-09-19T10:13:19;12.77;;;2.58;;
24161;SDS011;12318;51.262;7.066;2023-09-19T10:15:49;12.35;;;2.80;;
24161;SDS011;12318;51.262;7.066;2023-09-19T10:18:20;10.02;;;2.15;;
24161;SDS011;12318;51.262;7.066;2023-09-19T10:20:47;16.60;;;2.97;;
24161;SDS011;12318;51.262;7.066;2023-09-19T10:23:15;16.17;;;2.75;;
24161;SDS011;12318;51.262;7.066;2023-09-19T10:25:47;11.27;;;2.70;;
24161;SDS011;12318;51.262;7.066;2023-09-19T10:28:16;12.77;;;2.80;;
24161;SDS011;12318;51.262;7.066;2023-09-19T10:30:46;11.05;;;2.53;;
24161;SDS011;12318;51.262;7.066;2023-09-19T10:33:15;9.85;;;2.35;;
24161;SDS011;12318;51.262;7.066;2023-09-19T10:35:45;14.38;;;2.50;;
24161;SDS011;12318;51.262;7.066;2023-09-19T10:38:12;10.43;;;2.83;;
24161;SDS011;12318;51.262;7.066;2023-09-19T10:40:39;13.63;;;2.80;;
24161;SDS011;12318;51.262;7.066;2023-09-19T10:43:15;12.90;;;2.80;;
24161;SDS011;12318;51.262;7.066;2023-09-19T10:45:46;11.35;;;2.88;;
24161;SDS011;12318;51.262;7.066;2023-09-19T10:48:14;11.98;;;2.50;;
24161;SDS011;12318;51.262;7.066;2023-09-19T10:56:16;10.85;;;2.40;;
24161;SDS011;12318;51.262;7.066;2023-09-19T10:58:43;13.07;;;2.58;;
24161;SDS011;12318;51.262;7.066;2023-09-19T11:01:10;8.27;;;2.33;;
24161;SDS011;12318;51.262;7.066;2023-09-19T11:03:40;15.90;;;2.40;;
24161;SDS011;12318;51.262;7.066;2023-09-19T11:06:11;15.63;;;2.75;;
24161;SDS011;12318;51.262;7.066;2023-09-19T11:08:51;14.95;;;2.83;;
24161;SDS011;12318;51.262;7.066;2023-09-19T11:14:14;11.57;;;2.67;;
24161;SDS011;12318;51.262;7.066;2023-09-19T11:19:48;12.10;;;2.58;;
24161;SDS011;12318;51.262;7.066;2023-09-19T11:22:13;10.70;;;2.25;;
24161;SDS011;12318;51.262;7.066;2023-09-19T11:24:39;23.23;;;2.85;;
24161;SDS011;12318;51.262;7.066;2023-09-19T11:27:13;8.25;;;2.33;;
24161;SDS011;12318;51.262;7.066;2023-09-19T11:29:42;15.00;;;2.90;;
24161;SDS011;12318;51.262;7.066;2023-09-19T11:32:08;18.90;;;3.08;;
24161;SDS011;12318;51.262;7.066;2023-09-19T11:34:38;9.02;;;2.03;;
24161;SDS011;12318;51.262;7.066;2023-09-19T11:40:24;8.15;;;2.20;;
24161;SDS011;12318;51.262;7.066;2023-09-19T11:42:45;11.02;;;2.20;;
24161;SDS011;12318;51.262;7.066;2023-09-19T11:48:04;10.93;;;2.22;;
24161;SDS011;12318;51.262;7.066;2023-09-19T11:50:31;10.93;;;2.28;;
24161;SDS011;12318;51.262;7.066;2023-09-19T11:53:00;9.02;;;2.40;;
24161;SDS011;12318;51.262;7.066;2023-09-19T11:55:30;9.13;;;2.83;;
24161;SDS011;12318;51.262;7.066;2023-09-19T11:57:57;11.87;;;2.50;;
24161;SDS011;12318;51.262;7.066;2023-09-19T12:00:24;9.80;;;2.33;;
24161;SDS011;12318;51.262;7.066;2023-09-19T12:02:53;10.50;;;2.45;;
24161;SDS011;12318;51.262;7.066;2023-09-19T12:05:28;8.98;;;2.13;;
24161;SDS011;12318;51.262;7.066;2023-09-19T12:07:54;13.18;;;2.47;;
24161;SDS011;12318;51.262;7.066;2023-09-19T12:10:20;12.18;;;2.30;;
24161;SDS011;12318;51.262;7.066;2023-09-19T12:12:49;11.00;;;2.20;;
24161;SDS011;12318;51.262;7.066;2023-09-19T12:15:22;8.13;;;2.17;;
24161;SDS011;12318;51.262;7.066;2023-09-19T12:17:53;16.67;;;2.75;;
24161;SDS011;12318;51.262;7.066;2023-09-19T12:20:20;12.63;;;2.30;;
24161;SDS011;12318;51.262;7.066;2023-09-19T12:22:46;16.95;;;2.85;;
24161;SDS011;12318;51.262;7.066;2023-09-19T12:25:15;11.70;;;2.42;;
24161;SDS011;12318;51.262;7.066;2023-09-19T12:27:47;12.02;;;2.40;;
24161;SDS011;12318;51.262;7.066;2023-09-19T12:32:42;8.95;;;2.03;;
24161;SDS011;12318;51.262;7.066;2023-09-19T12:35:09;14.65;;;2.55;;
24161;SDS011;12318;51.262;7.066;2023-09-19T12:37:36;11.13;;;2.13;;
24161;SDS011;12318;51.262;7.066;2023-09-19T12:40:04;9.18;;;2.20;;
24161;SDS011;12318;51.262;7.066;2023-09-19T12:42:42;13.18;;;2.30;;
24161;SDS011;12318;51.262;7.066;2023-09-19T12:45:09;10.18;;;1.98;;
24161;SDS011;12318;51.262;7.066;2023-09-19T12:47:38;10.30;;;2.33;;
24161;SDS011;12318;51.262;7.066;2023-09-19T12:50:09;15.88;;;1.98;;
24161;SDS011;12318;51.262;7.066;2023-09-19T12:52:42;14.57;;;2.45;;
24161;SDS011;12318;51.262;7.066;2023-09-19T12:57:58;10.63;;;2.20;;
24161;SDS011;12318;51.262;7.066;2023-09-19T13:00:34;7.43;;;2.17;;
24161;SDS011;12318;51.262;7.066;2023-09-19T13:03:11;8.40;;;2.20;;
24161;SDS011;12318;51.262;7.066;2023-09-19T13:05:59;12.15;;;2.10;;
24161;SDS011;12318;51.262;7.066;2023-09-19T13:08:31;15.18;;;2.25;;
24161;SDS011;12318;51.262;7.066;2023-09-19T13:11:12;10.30;;;2.35;;
24161;SDS011;12318;51.262;7.066;2023-09-19T13:13:50;9.57;;;1.80;;
24161;SDS011;12318;51.262;7.066;2023-09-19T13:16:19;8.35;;;1.75;;
24161;SDS011;12318;51.262;7.066;2023-09-19T13:18:50;8.45;;;1.90;;
24161;SDS011;12318;51.262;7.066;2023-09-19T13:21:26;16.00;;;2.30;;
24161;SDS011;12318;51.262;7.066;2023-09-19T13:23:56;7.47;;;1.52;;
24161;SDS011;12318;51.262;7.066;2023-09-19T13:26:42;8.90;;;2.15;;
24161;SDS011;12318;51.262;7.066;2023-09-19T13:29:09;8.65;;;1.70;;
24161;SDS011;12318;51.262;7.066;2023-09-19T13:31:35;6.72;;;1.95;;
24161;SDS011;12318;51.262;7.066;2023-09-19T13:34:06;7.10;;;1.38;;
24161;SDS011;12318;51.262;7.066;2023-09-19T13:36:32;11.48;;;2.00;;
24161;SDS011;12318;51.262;7.066;2023-09-19T13:38:58;7.20;;;1.35;;
24161;SDS011;12318;51.262;7.066;2023-09-19T13:41:25;11.88;;;2.05;;
24161;SDS011;12318;51.262;7.066;2023-09-19T13:43:51;6.25;;;1.45;;
24161;SDS011;12318;51.262;7.066;2023-09-19T13:46:18;10.88;;;1.60;;
24161;SDS011;12318;51.262;7.066;2023-09-19T13:48:50;10.48;;;2.10;;
24161;SDS011;12318;51.262;7.066;2023-09-19T13:51:19;6.53;;;1.25;;
24161;SDS011;12318;51.262;7.066;2023-09-19T13:53:48;6.07;;;1.40;;
24161;SDS011;12318;51.262;7.066;2023-09-19T13:56:15;4.72;;;1.98;;
24161;SDS011;12318;51.262;7.066;2023-09-19T13:58:41;5.43;;;1.13;;
24161;SDS011;12318;51.262;7.066;2023-09-19T14:01:08;3.22;;;1.10;;
24161;SDS011;12318;51.262;7.066;2023-09-19T14:03:38;8.10;;;1.80;;
24161;SDS011;12318;51.262;7.066;2023-09-19T14:06:04;5.32;;;1.20;;
24161;SDS011;12318;51.262;7.066;2023-09-19T14:08:30;6.28;;;1.67;;
24161;SDS011;12318;51.262;7.066;2023-09-19T14:10:59;4.95;;;1.48;;
24161;SDS011;12318;51.262;7.066;2023-09-19T14:13:25;7.53;;;1.38;;
24161;SDS011;12318;51.262;7.066;2023-09-19T14:15:51;5.88;;;1.10;;
24161;SDS011;12318;51.262;7.066;2023-09-19T14:18:18;6.57;;;1.63;;
24161;SDS011;12318;51.262;7.066;2023-09-19T14:20:47;4.55;;;1.13;;
24161;SDS011;12318;51.262;7.066;2023-09-19T14:23:13;7.43;;;1.30;;
24161;SDS011;12318;51.262;7.066;2023-09-19T14:25:39;5.53;;;1.30;;
24161;SDS011;12318;51.262;7.066;2023-09-19T14:28:06;8.10;;;1.45;;
24161;SDS011;12318;51.262;7.066;2023-09-19T14:30:35;5.25;;;1.30;;
24161;SDS011;12318;51.262;7.066;2023-09-19T14:33:02;6.65;;;1.30;;
24161;SDS011;12318;51.262;7.066;2023-09-19T14:35:28;7.03;;;1.10;;
24161;SDS011;12318;51.262;7.066;2023-09-19T14:37:55;8.25;;;1.23;;
24161;SDS011;12318;51.262;7.066;2023-09-19T14:40:21;5.65;;;1.00;;
24161;SDS011;12318;51.262;7.066;2023-09-19T14:42:48;17.55;;;1.60;;
24161;SDS011;12318;51.262;7.066;2023-09-19T14:45:14;6.55;;;1.35;;
24161;SDS011;12318;51.262;7.066;2023-09-19T14:47:43;6.72;;;1.20;;
24161;SDS011;12318;51.262;7.066;2023-09-19T14:50:09;5.25;;;1.15;;
24161;SDS011;12318;51.262;7.066;2023-09-19T14:52:37;8.98;;;1.30;;
24161;SDS011;12318;51.262;7.066;2023-09-19T14:55:05;7.15;;;1.40;;
24161;SDS011;12318;51.262;7.066;2023-09-19T14:57:31;2.08;;;0.90;;
24161;SDS011;12318;51.262;7.066;2023-09-19T14:59:58;3.72;;;0.98;;
24161;SDS011;12318;51.262;7.066;2023-09-19T15:02:25;5.72;;;1.30;;
24161;SDS011;12318;51.262;7.066;2023-09-19T15:04:51;9.40;;;1.10;;
24161;SDS011;12318;51.262;7.066;2023-09-19T15:07:18;10.35;;;1.60;;
24161;SDS011;12318;51.262;7.066;2023-09-19T15:09:44;3.40;;;1.08;;
24161;SDS011;12318;51.262;7.066;2023-09-19T15:12:11;7.18;;;1.30;;
24161;SDS011;12318;51.262;7.066;2023-09-19T15:14:39;7.00;;;1.20;;
24161;SDS011;12318;51.262;7.066;2023-09-19T15:17:06;9.00;;;1.10;;
24161;SDS011;12318;51.262;7.066;2023-09-19T15:19:32;5.72;;;1.10;;
24161;SDS011;12318;51.262;7.066;2023-09-19T15:21:58;9.68;;;1.05;;
24161;SDS011;12318;51.262;7.066;2023-09-19T15:24:25;4.00;;;1.08;;
24161;SDS011;12318;51.262;7.066;2023-09-19T15:26:51;7.03;;;1.13;;
24161;SDS011;12318;51.262;7.066;2023-09-19T15:29:17;8.05;;;1.52;;